Time;durP1;ratioP1;P1;durP2;ratioP2;P2;SDS_P1;SDS_P2;PMS_P1;PMS_P2;Temp;Humidity;BMP_temperature;BMP_pressure;BME280_temperature;BME280_humidity;BME280_pressure;Samples;Min_cycle;Max_cycle;Signal;HPM_P1;HPM_P2
2023/06/23 00:01:34;;;;;;;1.70;1.60;;;21.00;99.90;;;;;;4970118;28;20531;-61
2023/06/23 00:03:59;;;;;;;1.93;1.70;;;20.90;99.90;;;;;;4962818;28;20252;-64
2023/06/23 00:06:25;;;;;;;1.80;1.63;;;20.80;99.90;;;;;;4964940;28;20196;-62
2023/06/23 00:08:51;;;;;;;1.52;1.42;;;20.80;99.90;;;;;;4965986;28;20192;-62
2023/06/23 00:11:17;;;;;;;1.87;1.77;;;20.90;99.90;;;;;;4962859;28;20651;-62
2023/06/23 00:13:42;;;;;;;1.60;1.50;;;20.90;99.90;;;;;;4969532;28;20653;-62
2023/06/23 00:16:08;;;;;;;1.87;1.30;;;20.90;99.90;;;;;;4959876;28;20558;-62
2023/06/23 00:18:35;;;;;;;1.47;1.37;;;20.80;99.90;;;;;;4961561;28;20208;-62
2023/06/23 00:21:06;;;;;;;1.50;1.40;;;20.80;99.90;;;;;;4964333;28;20239;-62
2023/06/23 00:23:32;;;;;;;2.13;1.50;;;20.80;99.90;;;;;;4960803;28;20192;-62
2023/06/23 00:25:58;;;;;;;1.80;1.70;;;20.70;99.90;;;;;;4965332;28;20180;-62
2023/06/23 00:28:24;;;;;;;1.70;1.60;;;20.60;99.90;;;;;;4963881;28;20184;-62
2023/06/23 00:30:54;;;;;;;2.20;1.80;;;20.80;99.90;;;;;;4968175;28;20214;-62
2023/06/23 00:33:20;;;;;;;1.80;1.65;;;20.70;99.90;;;;;;4966524;28;20234;-64
2023/06/23 00:35:45;;;;;;;1.90;1.80;;;20.70;99.90;;;;;;4960027;28;20587;-64
2023/06/23 00:38:11;;;;;;;3.57;1.70;;;20.60;99.90;;;;;;4965476;28;20188;-63
2023/06/23 00:40:38;;;;;;;1.77;1.67;;;;;;;;;;4960713;28;20204;-63
2023/06/23 00:43:03;;;;;;;2.65;1.50;;;20.60;99.90;;;;;;4964254;28;20672;-62
2023/06/23 00:45:29;;;;;;;1.80;1.70;;;20.60;99.90;;;;;;4963023;28;20184;-63
2023/06/23 00:47:55;;;;;;;1.90;1.70;;;20.60;99.90;;;;;;4960919;28;20921;-63
2023/06/23 00:50:23;;;;;;;2.05;1.85;;;20.60;99.90;;;;;;4968933;28;20200;-63
2023/06/23 00:52:51;;;;;;;3.50;1.70;;;20.50;99.90;;;;;;4962968;28;20209;-63
2023/06/23 00:55:21;;;;;;;3.10;1.88;;;20.40;99.90;;;;;;4964240;28;20191;-63
2023/06/23 00:57:48;;;;;;;2.00;1.90;;;20.30;99.90;;;;;;4962815;28;20184;-64
2023/06/23 01:00:18;;;;;;;2.28;2.00;;;20.30;99.90;;;;;;4966163;28;20219;-62
2023/06/23 01:02:59;;;;;;;1.67;1.58;;;20.20;99.90;;;;;;4966872;28;20809;-63
2023/06/23 01:05:36;;;;;;;4.20;2.13;;;20.10;99.90;;;;;;4963976;28;20585;-62
2023/06/23 01:08:32;;;;;;;1.50;1.40;;;20.20;99.90;;;;;;4964127;28;20181;-63
2023/06/23 01:11:08;;;;;;;2.92;2.22;;;20.20;99.90;;;;;;4961492;28;20749;-63
2023/06/23 01:13:37;;;;;;;2.65;2.17;;;20.30;99.90;;;;;;4964745;28;20300;-63
2023/06/23 01:16:33;;;;;;;2.88;1.95;;;20.20;99.90;;;;;;4962057;28;20188;-65
2023/06/23 01:19:11;;;;;;;3.45;2.28;;;20.10;99.90;;;;;;4961469;28;20553;-62
2023/06/23 01:21:42;;;;;;;2.42;2.22;;;19.90;99.90;;;;;;4964066;28;20204;-62
2023/06/23 01:24:16;;;;;;;2.60;2.45;;;19.80;99.90;;;;;;4968196;28;20247;-63
2023/06/23 01:26:51;;;;;;;2.90;2.70;;;19.60;99.90;;;;;;4961673;28;20188;-62
2023/06/23 01:29:39;;;;;;;3.03;2.72;;;19.60;99.90;;;;;;4963940;28;20770;-62
2023/06/23 01:32:18;;;;;;;2.70;2.50;;;19.60;99.90;;;;;;4958461;28;20601;-62
2023/06/23 01:34:46;;;;;;;2.70;2.50;;;19.60;99.90;;;;;;4963157;28;20623;-62
2023/06/23 01:37:18;;;;;;;2.85;2.63;;;19.40;99.90;;;;;;4961227;28;20208;-62
2023/06/23 01:39:51;;;;;;;3.17;2.97;;;19.40;99.90;;;;;;4964777;28;20220;-62
2023/06/23 01:42:22;;;;;;;3.40;3.10;;;19.30;99.90;;;;;;4961993;28;20204;-62
2023/06/23 01:44:55;;;;;;;3.80;3.50;;;19.10;99.90;;;;;;4955245;28;20585;-62
2023/06/23 01:47:26;;;;;;;3.15;2.95;;;19.00;99.90;;;;;;4959756;28;20251;-62
2023/06/23 01:49:58;;;;;;;3.90;3.60;;;19.20;99.90;;;;;;4961567;28;20193;-62
2023/06/23 01:52:25;;;;;;;4.50;4.13;;;19.00;99.90;;;;;;4962739;28;20219;-62
2023/06/23 01:54:52;;;;;;;4.43;3.90;;;19.30;99.90;;;;;;4961223;28;20188;-62
2023/06/23 01:57:19;;;;;;;5.00;4.03;;;19.20;99.90;;;;;;4960141;28;20268;-62
2023/06/23 01:59:46;;;;;;;4.45;3.60;;;19.30;99.90;;;;;;4963941;28;20222;-62
2023/06/23 02:02:14;;;;;;;3.95;3.65;;;19.20;99.90;;;;;;4957527;28;20205;-62
2023/06/23 02:04:43;;;;;;;3.80;3.50;;;19.10;99.90;;;;;;4960736;28;20193;-62
2023/06/23 02:07:12;;;;;;;4.80;4.40;;;19.20;99.90;;;;;;4962678;28;20280;-62
2023/06/23 02:09:41;;;;;;;3.97;3.67;;;19.00;99.90;;;;;;4960740;28;20229;-62
2023/06/23 02:12:08;;;;;;;3.97;3.67;;;18.80;99.90;;;;;;4962814;28;20693;-62
2023/06/23 02:14:37;;;;;;;3.95;3.58;;;18.80;99.90;;;;;;4960073;28;20219;-62
2023/06/23 02:17:05;;;;;;;3.40;3.10;;;18.70;99.90;;;;;;4960916;28;20493;-62
2023/06/23 02:19:33;;;;;;;4.05;3.70;;;18.70;99.90;;;;;;4955753;28;20208;-62
2023/06/23 02:21:59;;;;;;;3.72;3.42;;;18.60;99.90;;;;;;4958529;28;20210;-62
2023/06/23 02:24:26;;;;;;;2.80;2.60;;;18.60;99.90;;;;;;4964769;28;20275;-62
2023/06/23 02:26:52;;;;;;;3.00;2.80;;;18.50;99.90;;;;;;4962999;28;20192;-62
2023/06/23 02:29:19;;;;;;;3.55;3.15;;;18.50;99.90;;;;;;4965072;28;20227;-62
2023/06/23 02:31:45;;;;;;;3.30;3.00;;;18.50;99.90;;;;;;4960911;28;20215;-63
2023/06/23 02:34:10;;;;;;;2.80;2.60;;;18.60;99.90;;;;;;4961653;28;20197;-62
2023/06/23 02:36:45;;;;;;;3.07;2.80;;;18.80;99.90;;;;;;4962056;28;20185;-62
2023/06/23 02:39:15;;;;;;;3.50;3.20;;;18.80;99.90;;;;;;4966104;28;20199;-62
2023/06/23 02:41:43;;;;;;;2.95;2.75;;;19.10;99.90;;;;;;4963524;28;20196;-62
2023/06/23 02:44:14;;;;;;;2.80;2.60;;;18.50;99.90;;;;;;4964586;28;20279;-62
2023/06/23 02:46:43;;;;;;;3.60;3.30;;;18.40;99.90;;;;;;4961825;28;20195;-62
2023/06/23 02:49:14;;;;;;;3.67;3.38;;;18.30;99.90;;;;;;4960942;28;20306;-62
2023/06/23 02:51:43;;;;;;;3.95;3.65;;;18.20;99.90;;;;;;4965773;28;20199;-62
2023/06/23 02:54:12;;;;;;;4.20;3.80;;;18.20;99.90;;;;;;4966878;28;20200;-62
2023/06/23 02:56:41;;;;;;;4.30;3.95;;;18.10;99.90;;;;;;4958334;28;20189;-62
2023/06/23 02:59:10;;;;;;;5.15;4.65;;;18.20;99.90;;;;;;4956361;28;20251;-62
2023/06/23 03:01:40;;;;;;;5.30;4.90;;;18.40;99.90;;;;;;4964715;28;20207;-62
2023/06/23 03:04:06;;;;;;;6.35;5.47;;;18.70;99.90;;;;;;4964479;28;20654;-62
2023/06/23 03:06:35;;;;;;;6.20;5.60;;;18.20;99.90;;;;;;4962563;28;20263;-62
2023/06/23 03:09:02;;;;;;;5.93;5.32;;;18.30;99.90;;;;;;4962664;28;20215;-62
2023/06/23 03:11:30;;;;;;;6.18;5.65;;;18.30;99.90;;;;;;4962265;28;20287;-62
2023/06/23 03:13:56;;;;;;;6.20;5.60;;;18.30;99.90;;;;;;4964464;28;20196;-62
2023/06/23 03:16:44;;;;;;;5.75;5.25;;;18.40;99.90;;;;;;4959419;28;20270;-62
2023/06/23 03:19:33;;;;;;;7.00;6.40;;;18.30;99.90;;;;;;4959936;28;20218;-62
2023/06/23 03:22:07;;;;;;;6.60;6.10;;;18.40;99.90;;;;;;4960793;28;20351;-63
2023/06/23 03:24:37;;;;;;;7.55;6.85;;;18.40;99.90;;;;;;4962394;28;20338;-62
2023/06/23 03:27:06;;;;;;;7.70;7.10;;;18.40;99.90;;;;;;4962012;28;20184;-63
2023/06/23 03:29:36;;;;;;;6.88;6.32;;;18.50;99.90;;;;;;4964542;28;20180;-62
2023/06/23 03:32:05;;;;;;;7.80;7.10;;;19.00;99.90;;;;;;4954812;28;20235;-63
2023/06/23 03:34:54;;;;;;;7.15;6.55;;;18.20;99.90;;;;;;5601816;23;20232;-79
2023/06/23 03:37:22;;;;;;;8.13;7.43;;;18.30;99.90;;;;;;4914826;29;20367;-79
2023/06/23 03:39:54;;;;;;;7.63;6.93;;;18.70;99.90;;;;;;4939788;28;20208;-79
2023/06/23 03:42:21;;;;;;;8.15;7.45;;;18.70;99.90;;;;;;4943509;28;20716;-79
2023/06/23 03:44:48;;;;;;;8.25;7.55;;;18.70;99.90;;;;;;4940516;28;20568;-79
2023/06/23 03:47:18;;;;;;;7.97;7.30;;;18.70;99.90;;;;;;4943562;28;20188;-79
2023/06/23 03:49:54;;;;;;;8.68;7.85;;;18.50;99.90;;;;;;4948998;28;20189;-78
2023/06/23 03:52:22;;;;;;;8.43;7.63;;;18.60;99.90;;;;;;4948525;28;20188;-78
2023/06/23 03:54:51;;;;;;;7.80;7.10;;;18.60;99.90;;;;;;4944996;28;20205;-78
2023/06/23 03:57:20;;;;;;;8.32;7.55;;;18.70;99.90;;;;;;4946959;28;20185;-78
2023/06/23 03:59:49;;;;;;;7.90;7.20;;;18.40;99.90;;;;;;4941754;28;20202;-87
2023/06/23 04:02:17;;;;;;;8.38;7.68;;;18.80;99.90;;;;;;4958780;28;20661;-89
2023/06/23 04:04:45;;;;;;;8.05;7.35;;;18.70;99.90;;;;;;4961375;28;20249;-88
2023/06/23 04:07:12;;;;;;;8.52;7.72;;;18.80;99.90;;;;;;4974156;28;20192;-87
2023/06/23 04:09:42;;;;;;;9.63;8.77;;;19.00;99.90;;;;;;4969015;28;20182;-83
2023/06/23 04:12:14;;;;;;;8.52;7.82;;;19.30;99.90;;;;;;4960048;28;20258;-91
2023/06/23 04:14:42;;;;;;;9.85;8.95;;;19.40;99.90;;;;;;4959852;28;20261;-85
2023/06/23 04:17:13;;;;;;;9.07;8.18;;;19.50;99.90;;;;;;4966016;28;20196;-85
2023/06/23 04:19:44;;;;;;;9.60;8.70;;;20.80;99.90;;;;;;4957701;28;20210;-83
2023/06/23 04:22:14;;;;;;;8.68;7.93;;;19.60;99.90;;;;;;4953601;28;20250;-83
2023/06/23 04:27:17;;;;;;;8.85;8.05;;;19.60;99.90;;;;;;5038140;23;20522;-86
2023/06/23 04:29:48;;;;;;;9.77;8.98;;;21.00;99.90;;;;;;4938921;28;20196;-86
2023/06/23 04:32:16;;;;;;;9.95;9.05;;;19.50;99.90;;;;;;4951824;28;20181;-86
2023/06/23 04:34:45;;;;;;;9.73;8.82;;;19.60;99.90;;;;;;4950966;28;20193;-81
2023/06/23 04:37:23;;;;;;;9.73;8.85;;;19.90;99.90;;;;;;4939715;29;20270;-83
2023/06/23 04:39:56;;;;;;;10.25;9.35;;;19.90;99.90;;;;;;4939930;29;20209;-84
2023/06/23 04:42:27;;;;;;;9.93;9.02;;;20.00;99.90;;;;;;4942924;29;20280;-85
2023/06/23 04:55:55;;;;;;;11.48;10.32;;;19.80;99.90;;;;;;5862370;23;20219;-83
2023/06/23 04:58:25;;;;;;;9.82;9.02;;;19.80;99.90;;;;;;4900054;29;20231;-92
2023/06/23 05:00:51;;;;;;;11.32;10.32;;;19.90;99.90;;;;;;4923302;29;20197;-88
2023/06/23 05:03:18;;;;;;;10.00;9.00;;;20.10;99.90;;;;;;4922495;29;20182;-82
2023/06/23 05:05:46;;;;;;;9.60;8.77;;;20.30;99.90;;;;;;4928104;29;20254;-83
2023/06/23 05:08:13;;;;;;;10.73;9.75;;;20.00;99.90;;;;;;4929912;29;20181;-81
2023/06/23 05:10:45;;;;;;;9.93;9.02;;;20.40;99.90;;;;;;4929286;29;20734;-85
2023/06/23 05:13:14;;;;;;;10.13;9.25;;;20.20;99.90;;;;;;4922946;29;20212;-86
2023/06/23 05:15:41;;;;;;;10.73;9.55;;;20.80;99.90;;;;;;4911059;29;20241;-87
2023/06/23 05:18:08;;;;;;;11.57;10.57;;;20.60;99.90;;;;;;4934013;29;20182;-91
2023/06/23 05:20:39;;;;;;;12.52;11.30;;;20.60;99.90;;;;;;4932385;29;20211;-89
2023/06/23 05:23:08;;;;;;;12.63;11.45;;;20.50;99.90;;;;;;4944234;29;20205;-90
2023/06/23 05:25:38;;;;;;;14.23;12.93;;;19.90;99.90;;;;;;4922959;29;20345;-91
2023/06/23 05:28:06;;;;;;;13.07;11.88;;;20.30;99.90;;;;;;4935600;29;20679;-88
2023/06/23 05:30:36;;;;;;;13.77;12.38;;;20.70;99.90;;;;;;4934854;29;20633;-89
2023/06/23 05:33:07;;;;;;;14.27;12.77;;;20.20;99.90;;;;;;4949771;28;20186;-91
2023/06/23 05:35:34;;;;;;;13.60;12.40;;;20.70;99.90;;;;;;4929964;29;20289;-89
2023/06/23 05:38:03;;;;;;;13.52;12.30;;;20.30;99.90;;;;;;4931371;29;20225;-83
2023/06/23 05:40:28;;;;;;;13.68;12.48;;;20.80;99.90;;;;;;4929998;29;20232;-83
2023/06/23 05:42:54;;;;;;;14.80;13.40;;;22.80;99.90;;;;;;4926654;29;20651;-86
2023/06/23 05:45:20;;;;;;;14.20;12.90;;;20.60;99.90;;;;;;4920104;29;20301;-85
2023/06/23 05:48:27;;;;;;;15.20;13.80;;;20.60;99.90;;;;;;4919483;29;20187;-85
2023/06/23 05:50:54;;;;;;;16.45;14.95;;;20.40;99.90;;;;;;4933303;29;20212;-85
2023/06/23 05:53:23;;;;;;;15.50;14.10;;;20.40;99.90;;;;;;4929526;29;20209;-85
2023/06/23 05:56:12;;;;;;;14.23;13.00;;;20.50;99.90;;;;;;4931107;29;20210;-85
2023/06/23 05:58:41;;;;;;;15.40;13.90;;;20.90;99.90;;;;;;4927055;29;20257;-86
2023/06/23 06:01:12;;;;;;;16.52;14.57;;;20.80;99.90;;;;;;4925682;29;20575;-87
2023/06/23 06:03:42;;;;;;;16.52;14.85;;;20.80;99.90;;;;;;4924347;29;20284;-87
2023/06/23 06:06:09;;;;;;;16.13;14.63;;;21.10;99.90;;;;;;4943286;28;20252;-85
2023/06/23 06:08:37;;;;;;;16.38;14.88;;;20.60;99.90;;;;;;4930081;29;20193;-78
2023/06/23 06:11:04;;;;;;;17.13;15.52;;;20.40;99.90;;;;;;4931350;29;20194;-77
2023/06/23 06:13:34;;;;;;;17.48;15.82;;;20.30;99.90;;;;;;4932700;29;20207;-78
2023/06/23 06:16:01;;;;;;;17.02;15.43;;;20.50;99.90;;;;;;4927060;29;20255;-77
2023/06/23 06:18:27;;;;;;;17.48;15.88;;;20.50;99.90;;;;;;4922480;29;20205;-78
2023/06/23 06:20:56;;;;;;;16.38;14.80;;;20.70;99.90;;;;;;4921736;29;20273;-78
2023/06/23 06:23:23;;;;;;;15.75;14.15;;;20.50;99.90;;;;;;4929283;29;20181;-78
2023/06/23 06:25:53;;;;;;;15.85;14.30;;;20.70;99.90;;;;;;4932486;29;20256;-78
2023/06/23 06:28:19;;;;;;;15.00;13.50;;;20.60;99.90;;;;;;4922805;29;20565;-78
2023/06/23 06:30:46;;;;;;;16.48;14.98;;;20.70;99.90;;;;;;4931247;29;20181;-78
2023/06/23 06:33:13;;;;;;;16.85;15.32;;;20.80;99.90;;;;;;4918278;29;20239;-78
2023/06/23 06:35:40;;;;;;;15.27;13.88;;;21.10;99.90;;;;;;4927319;29;20817;-78
2023/06/23 06:38:07;;;;;;;16.45;14.75;;;22.40;99.90;;;;;;4919051;29;20197;-79
2023/06/23 06:40:35;;;;;;;17.52;15.75;;;21.30;99.90;;;;;;4920238;29;20263;-79
2023/06/23 06:43:00;;;;;;;17.88;16.13;;;21.50;99.90;;;;;;4944540;29;20672;-79
2023/06/23 06:45:26;;;;;;;16.60;15.07;;;20.80;99.90;;;;;;4922725;29;20249;-78
2023/06/23 06:47:54;;;;;;;16.00;14.50;;;21.50;99.90;;;;;;4926864;29;20193;-79
2023/06/23 06:50:22;;;;;;;15.68;14.13;;;21.40;99.90;;;;;;4934328;29;20197;-78
2023/06/23 06:52:49;;;;;;;16.95;15.20;;;21.20;99.90;;;;;;4936273;29;20186;-78
2023/06/23 06:55:20;;;;;;;16.30;14.80;;;21.30;99.90;;;;;;4932993;29;20306;-78
2023/06/23 06:57:47;;;;;;;15.77;14.27;;;21.40;99.90;;;;;;4941754;29;20205;-79
2023/06/23 07:00:17;;;;;;;15.63;14.05;;;21.30;99.90;;;;;;4942007;29;20209;-79
2023/06/23 07:02:43;;;;;;;14.90;13.50;;;21.30;99.90;;;;;;4944269;29;20192;-79
2023/06/23 07:05:09;;;;;;;14.70;13.30;;;21.30;99.90;;;;;;4935432;29;20278;-79
2023/06/23 07:07:35;;;;;;;14.57;13.07;;;21.40;99.90;;;;;;4946384;29;20178;-78
2023/06/23 07:10:00;;;;;;;16.60;15.00;;;21.60;99.90;;;;;;4931774;29;20453;-79
2023/06/23 07:12:26;;;;;;;16.70;14.73;;;21.40;99.90;;;;;;4925910;29;20246;-78
2023/06/23 07:14:51;;;;;;;14.33;13.10;;;21.50;99.90;;;;;;4928237;29;20190;-78
2023/06/23 07:17:17;;;;;;;14.60;13.10;;;21.70;99.90;;;;;;4923430;29;20198;-78
2023/06/23 07:19:42;;;;;;;15.10;13.70;;;21.50;99.90;;;;;;4929121;29;20213;-78
2023/06/23 07:22:09;;;;;;;17.83;16.17;;;21.50;99.90;;;;;;4926719;29;20273;-79
2023/06/23 07:24:34;;;;;;;14.35;12.85;;;21.40;99.90;;;;;;4923041;29;20273;-78
2023/06/23 07:27:00;;;;;;;14.40;13.10;;;22.00;99.90;;;;;;4924829;29;20305;-82
2023/06/23 07:29:26;;;;;;;13.65;12.35;;;21.70;99.90;;;;;;4931187;29;20603;-81
2023/06/23 07:31:52;;;;;;;20.80;18.70;;;21.80;99.40;;;;;;4927157;29;20285;-79
2023/06/23 07:34:19;;;;;;;14.03;12.63;;;22.40;99.60;;;;;;4936313;29;20202;-81
2023/06/23 07:36:45;;;;;;;12.38;11.27;;;21.90;98.60;;;;;;4928396;29;20293;-82
2023/06/23 07:39:10;;;;;;;14.57;12.90;;;22.30;98.30;;;;;;4927279;29;20241;-83
2023/06/23 07:41:36;;;;;;;11.00;9.93;;;22.70;97.90;;;;;;4924453;29;20646;-83
2023/06/23 07:44:02;;;;;;;12.23;11.13;;;23.30;96.90;;;;;;4934178;29;20201;-84
2023/06/23 07:46:27;;;;;;;12.53;11.33;;;22.90;96.00;;;;;;4935588;29;20973;-82
2023/06/23 07:48:53;;;;;;;12.00;10.80;;;22.90;96.30;;;;;;4928623;29;20190;-79
2023/06/23 07:51:18;;;;;;;12.13;11.03;;;22.20;96.50;;;;;;4930789;29;20222;-83
2023/06/23 07:53:44;;;;;;;11.20;10.07;;;22.80;96.70;;;;;;4932640;29;20193;-79
2023/06/23 07:56:12;;;;;;;12.63;11.43;;;23.00;96.40;;;;;;4942087;29;20237;-80
2023/06/23 07:58:39;;;;;;;11.00;10.00;;;22.60;96.30;;;;;;4936481;29;20449;-79
2023/06/23 08:01:05;;;;;;;11.90;10.70;;;22.90;96.00;;;;;;4932878;29;20458;-83
2023/06/23 08:03:31;;;;;;;10.50;9.40;;;23.40;95.60;;;;;;4930407;29;20437;-83
2023/06/23 08:05:56;;;;;;;11.07;10.07;;;23.70;95.00;;;;;;4936871;29;20783;-81
2023/06/23 08:08:22;;;;;;;10.53;9.63;;;23.10;94.90;;;;;;4938473;29;20204;-83
2023/06/23 08:10:47;;;;;;;14.57;12.70;;;22.80;95.10;;;;;;4938185;29;20190;-86
2023/06/23 08:13:14;;;;;;;11.53;10.53;;;22.80;96.20;;;;;;4932215;29;20185;-86
2023/06/23 08:15:41;;;;;;;11.00;9.93;;;22.80;96.80;;;;;;4949595;28;20213;-87
2023/06/23 08:18:07;;;;;;;12.57;11.37;;;22.30;96.50;;;;;;4927628;29;20555;-90
2023/06/23 08:20:33;;;;;;;11.50;10.50;;;23.00;96.80;;;;;;4926601;29;21326;-89
2023/06/23 08:22:59;;;;;;;10.60;9.60;;;22.90;96.90;;;;;;4932946;29;20218;-91
2023/06/23 08:25:24;;;;;;;11.70;10.60;;;22.80;96.70;;;;;;4945665;29;20465;-89
2023/06/23 08:27:50;;;;;;;11.87;10.77;;;22.90;96.50;;;;;;4933388;29;20438;-88
2023/06/23 08:30:15;;;;;;;10.53;9.60;;;23.30;95.80;;;;;;4950789;28;20220;-88
2023/06/23 08:32:41;;;;;;;11.63;10.47;;;23.50;94.60;;;;;;4931353;29;20220;-89
2023/06/23 08:35:08;;;;;;;11.33;10.33;;;23.80;93.50;;;;;;4922697;29;20204;-86
2023/06/23 08:37:34;;;;;;;11.90;10.63;;;23.80;93.50;;;;;;4929732;29;20867;-89
2023/06/23 08:39:59;;;;;;;11.10;10.10;;;24.10;93.20;;;;;;4928933;29;20559;-91
2023/06/23 08:42:25;;;;;;;11.37;10.27;;;25.10;92.60;;;;;;4929988;29;20184;-88
2023/06/23 08:44:54;;;;;;;11.47;10.37;;;26.00;92.30;;;;;;4929648;29;20240;-89
2023/06/23 08:47:22;;;;;;;10.43;9.53;;;24.50;91.80;;;;;;4921368;29;20461;-89
2023/06/23 08:49:49;;;;;;;10.53;9.60;;;24.90;92.70;;;;;;4931440;29;20616;-89
2023/06/23 08:52:17;;;;;;;11.63;10.53;;;23.90;92.70;;;;;;4944426;29;20454;-90
2023/06/23 08:54:43;;;;;;;11.13;10.13;;;;;;;;;;4943135;28;20458;-89
2023/06/23 08:57:09;;;;;;;10.77;9.77;;;;;;;;;;4926845;29;20576;-90
2023/06/23 08:59:36;;;;;;;10.00;9.10;;;23.60;92.90;;;;;;4946210;29;20461;-90
2023/06/23 09:02:01;;;;;;;9.57;8.70;;;26.00;92.60;;;;;;4911368;23;20555;-65
2023/06/23 09:04:27;;;;;;;9.13;8.23;;;26.50;88.70;;;;;;4907859;29;20905;-65
2023/06/23 09:06:52;;;;;;;8.20;7.43;;;28.30;81.70;;;;;;4906115;29;20188;-66
2023/06/23 09:09:18;;;;;;;9.93;9.07;;;29.30;75.80;;;;;;4911086;29;20200;-66
2023/06/23 09:11:44;;;;;;;9.10;8.40;;;29.90;72.70;;;;;;4916273;29;20754;-64
2023/06/23 09:14:11;;;;;;;8.90;8.20;;;29.80;70.70;;;;;;4906918;29;20208;-64
2023/06/23 09:16:38;;;;;;;9.80;9.00;;;29.60;70.50;;;;;;4905875;29;20443;-64
2023/06/23 09:19:06;;;;;;;10.30;9.50;;;28.70;71.80;;;;;;4902217;29;20475;-68
2023/06/23 09:21:35;;;;;;;9.33;8.53;;;27.20;76.10;;;;;;4916991;29;20466;-64
2023/06/23 09:24:03;;;;;;;9.97;9.17;;;27.00;77.70;;;;;;4905279;29;20458;-64
2023/06/23 09:26:47;;;;;;;9.00;8.30;;;26.90;79.80;;;;;;4907585;29;20442;-64
2023/06/23 09:29:20;;;;;;;9.40;8.60;;;27.40;77.10;;;;;;4901314;29;20450;-63
2023/06/23 09:31:48;;;;;;;7.80;7.20;;;27.90;76.40;;;;;;4907430;29;21020;-63
2023/06/23 09:34:24;;;;;;;9.03;8.23;;;29.20;71.70;;;;;;4907563;29;20880;-64
2023/06/23 09:36:52;;;;;;;7.97;7.27;;;29.60;68.00;;;;;;4908705;29;20451;-64
2023/06/23 09:39:18;;;;;;;9.00;8.17;;;30.30;67.40;;;;;;4911955;29;20515;-64
2023/06/23 09:41:54;;;;;;;8.60;7.90;;;29.90;66.20;;;;;;4904583;29;20498;-68
2023/06/23 09:44:20;;;;;;;8.97;8.27;;;30.10;66.10;;;;;;4897902;29;20556;-68
2023/06/23 09:46:45;;;;;;;8.20;7.50;;;31.30;63.60;;;;;;4903954;29;20467;-67
2023/06/23 09:49:11;;;;;;;8.10;7.50;;;32.30;60.80;;;;;;4908293;29;20696;-68
2023/06/23 09:51:46;;;;;;;7.90;7.10;;;31.80;59.30;;;;;;4899676;29;20717;-64
2023/06/23 09:54:12;;;;;;;7.40;6.70;;;31.10;60.40;;;;;;4894539;29;20246;-61
2023/06/23 09:56:37;;;;;;;7.23;6.63;;;31.70;59.00;;;;;;4902378;29;20449;-61
2023/06/23 09:59:03;;;;;;;7.03;6.53;;;31.70;56.10;;;;;;4899848;29;20767;-61
2023/06/23 10:01:34;;;;;;;7.33;6.63;;;31.50;57.40;;;;;;4905396;29;20746;-61
2023/06/23 10:04:00;;;;;;;7.47;6.87;;;32.30;55.70;;;;;;4905528;29;20811;-61
2023/06/23 10:06:32;;;;;;;6.40;5.90;;;31.90;56.00;;;;;;4905547;29;20446;-61
2023/06/23 10:09:09;;;;;;;8.83;7.93;;;31.70;56.50;;;;;;4903089;29;20662;-61
2023/06/23 10:11:38;;;;;;;7.53;7.03;;;31.90;55.70;;;;;;4903177;29;20466;-61
2023/06/23 10:14:10;;;;;;;10.93;9.83;;;31.30;56.70;;;;;;4907091;29;20818;-62
2023/06/23 10:16:41;;;;;;;5.87;5.47;;;32.30;54.20;;;;;;4907792;29;20492;-63
2023/06/23 10:19:07;;;;;;;7.07;6.53;;;32.40;53.70;;;;;;4908682;29;20471;-63
2023/06/23 10:21:33;;;;;;;6.20;5.70;;;33.50;52.30;;;;;;4909300;29;20467;-63
2023/06/23 10:24:05;;;;;;;6.03;5.53;;;33.60;51.20;;;;;;4911603;29;20970;-64
2023/06/23 10:26:34;;;;;;;7.10;6.50;;;33.60;51.20;;;;;;4901887;29;20478;-63
2023/06/23 10:29:03;;;;;;;6.27;5.87;;;33.10;51.00;;;;;;4907175;29;20449;-63
2023/06/23 10:31:31;;;;;;;7.20;6.60;;;33.60;50.90;;;;;;4910148;29;20470;-62
2023/06/23 10:34:03;;;;;;;7.07;6.57;;;32.90;51.30;;;;;;4905224;29;20976;-60
2023/06/23 10:36:31;;;;;;;6.70;6.20;;;31.50;52.40;;;;;;4907293;29;20451;-60
2023/06/23 10:39:03;;;;;;;6.83;6.33;;;30.50;54.90;;;;;;4911876;29;20451;-60
2023/06/23 10:41:29;;;;;;;6.77;6.07;;;29.80;56.50;;;;;;4907126;29;20467;-60
2023/06/23 10:43:56;;;;;;;7.50;6.90;;;28.60;58.40;;;;;;4906158;29;20793;-60
2023/06/23 10:46:26;;;;;;;6.97;6.40;;;27.70;61.80;;;;;;4907898;29;20447;-60
2023/06/23 10:48:52;;;;;;;7.77;7.00;;;26.70;64.60;;;;;;4905891;29;20436;-60
2023/06/23 10:51:18;;;;;;;7.80;7.10;;;26.00;68.00;;;;;;4904397;29;20856;-60
2023/06/23 10:54:00;;;;;;;7.87;7.17;;;25.70;69.40;;;;;;4908538;29;20449;-61
2023/06/23 10:56:33;;;;;;;8.30;7.60;;;25.90;70.60;;;;;;4902880;29;20482;-58
2023/06/23 10:58:59;;;;;;;7.27;6.53;;;26.30;68.30;;;;;;4907314;29;20478;-66
2023/06/23 11:01:26;;;;;;;6.63;6.13;;;26.30;67.90;;;;;;4908579;29;22689;-63
2023/06/23 11:03:56;;;;;;;6.63;6.03;;;27.40;65.20;;;;;;4906830;29;20181;-67
2023/06/23 11:06:28;;;;;;;6.57;6.07;;;28.40;62.40;;;;;;4908344;29;20451;-66
2023/06/23 11:08:53;;;;;;;6.53;6.00;;;29.50;59.60;;;;;;4906617;29;20976;-67
2023/06/23 11:11:30;;;;;;;6.63;6.13;;;29.40;58.30;;;;;;4903339;29;20474;-66
2023/06/23 11:13:56;;;;;;;7.27;6.77;;;28.40;58.80;;;;;;4903569;29;20220;-65
2023/06/23 11:16:38;;;;;;;7.03;6.50;;;27.50;61.80;;;;;;4906545;29;20518;-66
2023/06/23 11:19:04;;;;;;;8.27;6.77;;;27.00;64.10;;;;;;4905743;29;20311;-66
2023/06/23 11:22:07;;;;;;;6.50;6.00;;;26.40;67.50;;;;;;4911082;29;20489;-67
2023/06/23 11:24:33;;;;;;;6.20;5.60;;;26.70;66.90;;;;;;4914189;29;20962;-68
2023/06/23 11:27:03;;;;;;;7.40;6.77;;;27.70;66.00;;;;;;4905566;29;20497;-68
2023/06/23 11:29:30;;;;;;;7.20;6.70;;;28.70;60.00;;;;;;4904084;29;20228;-68
2023/06/23 11:32:22;;;;;;;6.30;5.50;;;28.80;59.50;;;;;;4902498;29;20824;-68
2023/06/23 11:34:49;;;;;;;6.50;6.00;;;28.90;59.10;;;;;;4909082;29;20478;-72
2023/06/23 11:37:15;;;;;;;6.20;5.43;;;28.40;59.40;;;;;;4905532;29;20458;-64
2023/06/23 11:39:41;;;;;;;6.23;5.73;;;29.10;59.00;;;;;;4913318;29;20557;-64
2023/06/23 11:42:07;;;;;;;6.33;5.80;;;29.70;58.50;;;;;;4905749;29;20907;-64
2023/06/23 11:44:32;;;;;;;7.07;6.07;;;30.20;57.60;;;;;;4904029;29;20450;-64
2023/06/23 11:46:58;;;;;;;8.80;6.57;;;29.50;57.40;;;;;;4908366;29;20479;-67
2023/06/23 11:49:24;;;;;;;6.60;6.10;;;29.40;58.30;;;;;;4913568;29;20536;-64
2023/06/23 11:51:50;;;;;;;6.40;5.90;;;28.70;59.60;;;;;;4911598;29;20216;-62
2023/06/23 11:54:19;;;;;;;7.60;7.00;;;28.00;61.40;;;;;;4905887;29;20526;-68
2023/06/23 11:56:45;;;;;;;7.80;5.93;;;27.90;61.90;;;;;;4904255;29;20449;-69
2023/06/23 11:59:12;;;;;;;6.50;5.90;;;28.10;61.90;;;;;;4915794;29;20469;-70
2023/06/23 12:01:38;;;;;;;8.80;6.57;;;28.00;62.40;;;;;;4912239;29;20266;-70
2023/06/23 12:04:05;;;;;;;6.67;6.10;;;27.70;63.50;;;;;;4907095;29;20450;-68
2023/06/23 12:06:36;;;;;;;6.70;6.10;;;27.50;64.30;;;;;;4902201;29;20217;-68
2023/06/23 12:09:03;;;;;;;6.40;6.00;;;27.30;64.60;;;;;;4909377;29;20810;-73
2023/06/23 12:11:29;;;;;;;6.90;6.40;;;27.00;64.40;;;;;;4906386;29;20476;-75
2023/06/23 12:13:57;;;;;;;5.93;5.53;;;26.90;64.20;;;;;;4911586;29;20453;-74
2023/06/23 12:16:22;;;;;;;6.70;6.10;;;26.90;63.00;;;;;;4909961;29;20435;-71
2023/06/23 12:18:50;;;;;;;6.60;6.10;;;26.80;64.80;;;;;;4909563;29;20788;-65
2023/06/23 12:21:17;;;;;;;5.83;5.40;;;26.70;65.80;;;;;;4912540;29;20205;-62
2023/06/23 12:23:43;;;;;;;6.10;5.60;;;26.70;66.50;;;;;;4902049;29;20467;-65
2023/06/23 12:26:09;;;;;;;5.80;5.40;;;26.20;67.00;;;;;;4911211;29;20470;-70
2023/06/23 12:28:35;;;;;;;5.30;4.90;;;26.20;65.80;;;;;;4907492;29;20971;-68
2023/06/23 12:31:03;;;;;;;5.30;4.80;;;26.00;65.50;;;;;;4909596;29;20847;-66
2023/06/23 12:33:29;;;;;;;5.70;5.20;;;25.80;66.10;;;;;;4904869;29;21301;-65
2023/06/23 12:35:56;;;;;;;5.63;5.23;;;25.60;68.30;;;;;;4911026;29;20535;-66
2023/06/23 12:38:23;;;;;;;6.50;6.00;;;25.30;70.00;;;;;;4912495;29;20193;-65
2023/06/23 12:40:49;;;;;;;5.90;5.40;;;25.20;70.40;;;;;;4910520;29;21233;-66
2023/06/23 12:43:14;;;;;;;6.90;6.30;;;25.20;71.10;;;;;;4909999;29;20495;-66
2023/06/23 12:45:40;;;;;;;5.70;5.30;;;25.40;71.70;;;;;;4913223;29;20275;-66
2023/06/23 12:48:08;;;;;;;7.07;6.40;;;25.40;69.40;;;;;;4912321;29;20441;-66
2023/06/23 12:50:34;;;;;;;7.03;5.90;;;24.80;69.80;;;;;;4910406;29;20182;-66
2023/06/23 12:53:00;;;;;;;6.87;6.27;;;25.60;70.60;;;;;;4908777;29;20475;-66
2023/06/23 12:55:26;;;;;;;6.40;5.90;;;25.80;70.10;;;;;;4912465;29;20455;-66
2023/06/23 12:57:51;;;;;;;6.83;6.30;;;25.90;70.30;;;;;;4914354;29;20185;-65
2023/06/23 13:00:18;;;;;;;6.17;5.30;;;26.10;70.00;;;;;;4911392;29;20217;-65
2023/06/23 13:02:44;;;;;;;5.10;4.70;;;26.30;66.30;;;;;;4913209;29;20213;-65
2023/06/23 13:05:10;;;;;;;6.07;5.57;;;26.30;65.60;;;;;;4911594;29;20454;-66